createdAt,value
2019-03-22T00:03:51.918Z,10.90
2019-03-22T00:08:56.783Z,10.90
2019-03-22T00:14:01.548Z,11.00
2019-03-22T00:19:06.448Z,10.90
2019-03-22T00:24:11.209Z,11.00
2019-03-22T00:29:16.068Z,11.00
2019-03-22T00:34:20.919Z,11.00
2019-03-22T00:39:25.758Z,11.00
2019-03-22T00:44:30.702Z,11.00
2019-03-22T00:49:35.475Z,11.00
2019-03-22T00:54:40.258Z,11.00
2019-03-22T00:59:45.443Z,11.00
2019-03-22T01:04:50.289Z,11.00
2019-03-22T01:09:55.200Z,11.00
2019-03-22T01:15:00.004Z,11.00
2019-03-22T01:20:07.154Z,11.00
2019-03-22T01:25:12.084Z,11.00
2019-03-22T01:30:18.020Z,10.90
2019-03-22T01:35:22.878Z,10.90
2019-03-22T01:40:27.799Z,10.90
2019-03-22T01:45:32.646Z,10.90
2019-03-22T01:50:37.484Z,10.90
2019-03-22T01:55:42.459Z,10.80
2019-03-22T02:00:47.375Z,10.80
2019-03-22T02:05:53.508Z,10.80
2019-03-22T02:10:58.834Z,10.80
2019-03-22T02:16:04.092Z,10.70
2019-03-22T02:21:09.443Z,10.70
2019-03-22T02:26:15.379Z,10.70
2019-03-22T02:31:20.568Z,10.70
2019-03-22T02:36:25.923Z,10.70
2019-03-22T02:41:30.875Z,10.70
2019-03-22T02:46:36.213Z,10.70
2019-03-22T02:51:41.190Z,10.70
2019-03-22T02:56:46.450Z,10.60
2019-03-22T03:01:51.427Z,10.70
2019-03-22T03:06:56.363Z,10.70
2019-03-22T03:12:01.316Z,10.70
2019-03-22T03:17:06.157Z,10.70
2019-03-22T03:22:11.008Z,10.70
2019-03-22T03:27:15.852Z,10.70
2019-03-22T03:32:20.985Z,10.70
2019-03-22T03:37:25.811Z,10.70
2019-03-22T03:42:30.593Z,10.60
2019-03-22T03:47:35.422Z,10.60
2019-03-22T03:52:40.198Z,10.60
2019-03-22T03:57:45.042Z,10.50
2019-03-22T04:02:49.741Z,10.50
2019-03-22T04:07:54.601Z,10.50
2019-03-22T04:12:59.696Z,10.50
2019-03-22T04:18:04.544Z,10.40
2019-03-22T04:23:09.378Z,10.40
2019-03-22T04:28:14.260Z,10.40
2019-03-22T04:33:18.932Z,10.40
2019-03-22T04:38:23.781Z,10.40
2019-03-22T04:43:28.608Z,10.30
2019-03-22T04:48:36.458Z,10.40
2019-03-22T04:53:44.226Z,10.30
2019-03-22T04:58:50.970Z,10.40
2019-03-22T05:03:58.901Z,10.30
2019-03-22T05:09:03.659Z,10.40
2019-03-22T05:14:08.752Z,10.30
2019-03-22T05:19:14.594Z,10.30
2019-03-22T05:24:20.432Z,10.20
2019-03-22T05:29:30.887Z,10.20
2019-03-22T05:34:33.520Z,10.20
2019-03-22T05:39:38.299Z,10.20
2019-03-22T05:44:43.136Z,10.20
2019-03-22T05:49:47.906Z,10.20
2019-03-22T05:54:52.740Z,10.20
2019-03-22T05:59:57.506Z,10.20
2019-03-22T06:05:02.190Z,10.20
2019-03-22T06:10:07.135Z,10.30
2019-03-22T06:15:12.295Z,10.30
2019-03-22T06:20:17.139Z,10.40
2019-03-22T06:25:21.927Z,10.50
2019-03-22T06:30:26.759Z,10.50
2019-03-22T06:35:31.596Z,10.50
2019-03-22T06:40:36.395Z,10.60
2019-03-22T06:45:41.243Z,10.60
2019-03-22T06:50:46.011Z,10.70
2019-03-22T06:55:50.765Z,10.70
2019-03-22T07:00:55.709Z,10.70
2019-03-22T07:06:00.491Z,10.80
2019-03-22T07:11:05.321Z,10.80
2019-03-22T07:16:10.328Z,11.00
2019-03-22T07:21:15.162Z,11.30
2019-03-22T07:26:20.007Z,11.30
2019-03-22T07:31:24.835Z,11.20
2019-03-22T07:36:29.673Z,11.40
2019-03-22T07:41:34.496Z,11.40
2019-03-22T07:46:39.326Z,11.60
2019-03-22T07:51:44.163Z,12.20
2019-03-22T07:56:48.852Z,12.10
2019-03-22T08:01:53.621Z,12.10
2019-03-22T08:06:58.363Z,12.30
2019-03-22T08:12:03.201Z,12.40
2019-03-22T08:17:08.101Z,12.40
2019-03-22T08:22:12.924Z,12.40
2019-03-22T08:27:17.755Z,12.60
2019-03-22T08:32:22.544Z,13.20
2019-03-22T08:37:27.341Z,13.00
2019-03-22T08:42:32.423Z,13.00
2019-03-22T08:47:37.242Z,13.00
2019-03-22T08:52:42.067Z,13.20
2019-03-22T08:57:46.903Z,13.20
2019-03-22T09:02:51.744Z,13.10
2019-03-22T09:07:56.492Z,13.20
2019-03-22T09:13:01.327Z,13.20
2019-03-22T09:18:06.347Z,13.20
2019-03-22T09:23:11.093Z,13.20
2019-03-22T09:28:15.941Z,13.60
2019-03-22T09:33:20.769Z,13.50
2019-03-22T09:38:28.438Z,13.30
2019-03-22T09:43:31.912Z,13.40
2019-03-22T09:48:36.656Z,13.10
2019-03-22T09:53:41.416Z,13.30
2019-03-22T09:58:46.254Z,13.20
2019-03-22T10:03:51.023Z,13.20
2019-03-22T10:08:55.786Z,13.10
2019-03-22T10:14:00.620Z,13.30
2019-03-22T10:19:05.602Z,13.30
2019-03-22T10:24:10.333Z,13.60
2019-03-22T10:29:15.082Z,13.80
2019-03-22T10:34:19.865Z,13.80
2019-03-22T10:39:24.707Z,13.60
2019-03-22T10:44:29.580Z,13.50
2019-03-22T10:49:34.454Z,13.60
2019-03-22T10:54:39.316Z,13.50
2019-03-22T10:59:44.245Z,13.30
2019-03-22T11:04:49.083Z,13.30
2019-03-22T11:09:53.974Z,13.20
2019-03-22T11:14:58.832Z,13.30
2019-03-22T11:20:08.816Z,13.40
2019-03-22T11:25:14.364Z,13.50
2019-03-22T11:30:19.509Z,13.60
2019-03-22T11:35:24.432Z,13.60
2019-03-22T11:40:29.477Z,14.00
2019-03-22T11:45:34.261Z,14.10
2019-03-22T11:50:39.180Z,14.20
2019-03-22T11:55:44.136Z,14.10
2019-03-22T12:00:49.104Z,14.00
2019-03-22T12:05:54.369Z,14.00
2019-03-22T12:10:59.550Z,14.00
2019-03-22T12:16:04.394Z,14.10
2019-03-22T12:21:09.340Z,14.20
2019-03-22T12:26:14.714Z,14.50
2019-03-22T12:31:19.594Z,14.70
2019-03-22T12:36:24.546Z,14.90
2019-03-22T12:41:29.411Z,15.30
2019-03-22T12:46:34.380Z,15.60
2019-03-22T12:51:39.433Z,15.80
2019-03-22T12:56:44.469Z,16.00
2019-03-22T13:01:49.426Z,15.40
2019-03-22T13:06:54.376Z,15.10
2019-03-22T13:11:59.359Z,14.70
2019-03-22T13:17:04.526Z,14.40
2019-03-22T13:22:10.039Z,14.30
2019-03-22T13:27:15.286Z,14.20
2019-03-22T13:32:20.268Z,14.40
2019-03-22T13:37:25.532Z,14.70
2019-03-22T13:42:30.677Z,14.80
2019-03-22T13:47:35.875Z,15.00
2019-03-22T13:52:40.939Z,15.50
2019-03-22T13:57:45.992Z,15.70
2019-03-22T14:02:51.171Z,15.30
2019-03-22T14:07:56.304Z,14.80
2019-03-22T14:13:02.461Z,14.40
2019-03-22T14:18:07.625Z,14.40
2019-03-22T14:23:12.816Z,14.70
2019-03-22T14:28:18.380Z,15.00
2019-03-22T14:33:23.680Z,14.90
2019-03-22T14:38:28.747Z,14.80
2019-03-22T14:43:33.814Z,14.60
2019-03-22T14:48:39.079Z,14.40
2019-03-22T14:53:44.654Z,14.20
2019-03-22T14:58:52.184Z,14.10
2019-03-22T15:03:56.900Z,14.10
2019-03-22T15:09:02.063Z,14.20
2019-03-22T15:14:25.186Z,14.20
2019-03-22T15:19:47.984Z,14.20
2019-03-22T15:25:09.656Z,14.30
2019-03-22T15:30:32.693Z,14.50
2019-03-22T15:35:39.936Z,14.60
2019-03-22T15:40:45.172Z,14.60
2019-03-22T15:45:50.248Z,14.50
2019-03-22T15:50:55.125Z,14.40
2019-03-22T15:56:00.271Z,14.20
2019-03-22T16:01:05.517Z,14.10
2019-03-22T16:06:10.393Z,13.90
2019-03-22T16:11:15.360Z,13.80
2019-03-22T16:16:20.483Z,13.70
2019-03-22T16:21:25.735Z,13.60
2019-03-22T16:26:30.827Z,13.50
2019-03-22T16:31:37.208Z,13.30
2019-03-22T16:36:42.299Z,13.10
2019-03-22T16:41:47.415Z,13.00
2019-03-22T16:46:52.567Z,12.80
2019-03-22T16:51:58.088Z,12.50
2019-03-22T16:57:02.921Z,12.30
2019-03-22T17:02:07.968Z,12.10
2019-03-22T17:07:13.141Z,11.90
2019-03-22T17:12:18.599Z,11.60
2019-03-22T17:17:23.679Z,11.40
2019-03-22T17:22:28.966Z,11.20
2019-03-22T17:27:34.042Z,11.00
2019-03-22T17:32:39.612Z,10.90
2019-03-22T17:37:44.944Z,10.80
2019-03-22T17:42:49.822Z,10.50
2019-03-22T17:47:55.146Z,10.20
2019-03-22T17:53:00.358Z,10.00
2019-03-22T17:58:05.808Z,9.90
2019-03-22T18:03:10.998Z,9.70
2019-03-22T18:08:15.853Z,9.60
2019-03-22T18:13:20.965Z,9.50
2019-03-22T18:18:26.062Z,9.40
2019-03-22T18:23:35.617Z,9.30
2019-03-22T18:28:38.016Z,9.20
2019-03-22T18:33:44.768Z,9.00
2019-03-22T18:38:50.167Z,8.90
2019-03-22T18:43:55.059Z,8.70
2019-03-22T18:49:00.037Z,8.60
2019-03-22T18:54:05.204Z,8.50
2019-03-22T18:59:10.360Z,8.30
2019-03-22T19:04:15.548Z,8.20
2019-03-22T19:09:21.891Z,7.80
2019-03-22T19:14:28.156Z,7.80
2019-03-22T19:19:33.039Z,7.70
2019-03-22T19:24:38.218Z,7.60
2019-03-22T19:29:44.554Z,7.50
2019-03-22T19:34:54.397Z,7.40
2019-03-22T19:39:56.532Z,7.20
2019-03-22T19:45:02.808Z,7.10
2019-03-22T19:50:12.930Z,7.00
2019-03-22T19:55:18.002Z,6.90
2019-03-22T20:00:23.060Z,6.80
2019-03-22T20:05:30.950Z,6.80
2019-03-22T20:10:36.124Z,6.60
2019-03-22T20:15:42.436Z,6.60
2019-03-22T20:20:47.618Z,6.60
2019-03-22T20:25:54.336Z,6.70
2019-03-22T20:31:03.267Z,6.70
2019-03-22T20:36:10.223Z,6.80
2019-03-22T20:41:15.207Z,6.80
2019-03-22T20:46:21.169Z,6.80
2019-03-22T20:51:26.246Z,6.90
2019-03-22T20:56:31.403Z,7.00
2019-03-22T21:01:36.643Z,7.00
2019-03-22T21:06:41.705Z,7.10
2019-03-22T21:11:46.793Z,7.20
2019-03-22T21:16:51.931Z,7.30
2019-03-22T21:21:57.063Z,7.40
2019-03-22T21:27:03.218Z,7.50
2019-03-22T21:32:08.292Z,7.50
2019-03-22T21:37:15.204Z,7.60
2019-03-22T21:42:20.076Z,7.70
2019-03-22T21:47:25.329Z,7.70
2019-03-22T21:52:31.442Z,7.80
2019-03-22T21:57:36.523Z,7.80
2019-03-22T22:02:41.792Z,7.90
2019-03-22T22:07:46.784Z,7.90
2019-03-22T22:12:51.843Z,7.80
2019-03-22T22:17:57.068Z,7.80
2019-03-22T22:23:02.716Z,7.80
2019-03-22T22:28:08.657Z,7.70
2019-03-22T22:33:13.683Z,7.50
2019-03-22T22:38:19.273Z,7.40
2019-03-22T22:43:24.332Z,7.40
2019-03-22T22:48:30.653Z,7.20
2019-03-22T22:53:35.894Z,7.10
2019-03-22T22:58:40.983Z,7.00
2019-03-22T23:03:45.874Z,6.90
2019-03-22T23:08:52.204Z,6.70
2019-03-22T23:13:57.298Z,6.60
2019-03-22T23:19:03.638Z,6.40
2019-03-22T23:24:08.516Z,6.20
2019-03-22T23:29:13.550Z,6.20
2019-03-22T23:34:18.316Z,6.10
2019-03-22T23:39:24.762Z,5.90
2019-03-22T23:44:29.744Z,5.80
2019-03-22T23:49:34.532Z,5.60
2019-03-22T23:54:39.594Z,5.50
2019-03-22T23:59:44.403Z,5.50
